Time,TemperatureF,DewpointF,PressureIn,WindDirection,WindDirectionDegrees,WindSpeedMPH,WindSpeedGustMPH,Humidity,HourlyPrecipIn,Conditions,Clouds,dailyrainin,SoftwareType,DateUTC
2013-09-25 00:01:00,55.7,51.0,29.90,ESE,102,0.0,0.0,84,0.00,,BKN110,0.00,VWS V14.01,2013-09-25 05:01:00,
2013-09-25 00:06:00,55.2,50.8,29.90,ESE,102,0.0,0.0,85,0.00,,BKN110,0.00,VWS V14.01,2013-09-25 05:06:00,
2013-09-25 00:11:00,54.7,50.6,29.90,ESE,102,0.0,0.0,86,0.00,,BKN110,0.00,VWS V14.01,2013-09-25 05:11:00,
2013-09-25 00:16:00,54.5,50.7,29.90,East,101,0.0,0.0,87,0.00,,BKN110,0.00,VWS V14.01,2013-09-25 05:16:00,
2013-09-25 00:21:00,54.5,50.7,29.90,ESE,102,0.0,0.0,87,0.00,,BKN110,0.00,VWS V14.01,2013-09-25 05:21:00,
2013-09-25 00:26:00,54.4,50.9,29.90,East,101,0.0,0.0,88,0.00,,BKN110,0.00,VWS V14.01,2013-09-25 05:26:00,
2013-09-25 00:31:00,54.3,50.8,29.91,East,101,0.0,0.0,88,0.00,,BKN110,0.00,VWS V14.01,2013-09-25 05:31:00,
2013-09-25 00:36:00,54.1,50.6,29.91,ESE,102,0.0,0.0,88,0.00,,BKN110,0.00,VWS V14.01,2013-09-25 05:36:00,
2013-09-25 00:41:00,53.9,50.7,29.91,ESE,102,0.0,0.0,89,0.00,,BKN110,0.00,VWS V14.01,2013-09-25 05:41:00,
2013-09-25 00:46:00,53.9,50.7,29.91,ESE,102,0.0,0.0,89,0.00,,BKN110,0.00,VWS V14.01,2013-09-25 05:46:00,
2013-09-25 00:51:00,54.1,50.9,29.90,ESE,102,0.0,0.0,89,0.00,,SCT110,0.00,VWS V14.01,2013-09-25 05:51:00,
2013-09-25 00:56:00,54.3,50.8,29.91,ESE,102,0.0,0.0,88,0.00,,SCT110,0.00,VWS V14.01,2013-09-25 05:56:00,
2013-09-25 01:01:00,54.2,50.7,29.91,ESE,102,0.0,0.0,88,0.00,,SCT110,0.00,VWS V14.01,2013-09-25 06:01:00,
2013-09-25 01:06:00,53.9,50.4,29.91,ESE,102,0.0,0.0,88,0.00,,SCT110,0.00,VWS V14.01,2013-09-25 06:06:00,
2013-09-25 01:11:00,53.8,50.6,29.91,ESE,102,0.0,0.0,89,0.00,,SCT110,0.00,VWS V14.01,2013-09-25 06:11:00,
2013-09-25 01:16:00,53.8,50.6,29.91,ESE,102,0.0,0.0,89,0.00,,SCT110,0.00,VWS V14.01,2013-09-25 06:16:00,
2013-09-25 01:21:00,53.6,50.4,29.91,ESE,102,0.0,0.0,89,0.00,,SCT110,0.00,VWS V14.01,2013-09-25 06:21:00,
2013-09-25 01:26:00,53.3,50.2,29.91,East,101,0.0,0.0,89,0.00,,SCT110,0.00,VWS V14.01,2013-09-25 06:26:00,
2013-09-25 01:31:00,53.2,50.3,29.91,ESE,102,0.0,0.0,90,0.00,,SCT110,0.00,VWS V14.01,2013-09-25 06:31:00,
2013-09-25 01:36:00,53.1,50.2,29.91,ESE,102,0.0,0.0,90,0.00,,SCT110,0.00,VWS V14.01,2013-09-25 06:36:00,
2013-09-25 01:41:00,52.9,50.0,29.91,ESE,102,0.0,1.0,90,0.00,,SCT110,0.00,VWS V14.01,2013-09-25 06:41:00,
2013-09-25 01:46:00,52.8,50.2,29.91,ESE,102,0.0,1.0,91,0.00,,SCT110,0.00,VWS V14.01,2013-09-25 06:46:00,
2013-09-25 01:51:00,52.7,50.2,29.91,ESE,102,0.0,1.0,91,0.00,,SCT110,0.00,VWS V14.01,2013-09-25 06:51:00,
2013-09-25 01:56:00,52.8,50.2,29.91,ESE,102,0.0,1.0,91,0.00,,SCT110,0.00,VWS V14.01,2013-09-25 06:56:00,
2013-09-25 02:01:00,52.8,50.2,29.91,ESE,102,0.0,0.0,91,0.00,,SCT110,0.00,VWS V14.01,2013-09-25 07:01:00,
2013-09-25 02:06:00,52.8,50.5,29.91,ESE,102,0.0,0.0,92,0.00,,SCT110,0.00,VWS V14.01,2013-09-25 07:06:00,
2013-09-25 02:11:00,52.6,50.0,29.92,ESE,102,0.0,1.0,91,0.00,,SCT110,0.00,VWS V14.01,2013-09-25 07:11:00,
2013-09-25 02:16:00,52.3,50.0,29.92,East,100,1.0,2.0,92,0.00,,SCT110,0.00,VWS V14.01,2013-09-25 07:16:00,
2013-09-25 02:21:00,52.4,50.2,29.92,East,101,0.0,2.0,92,0.00,,SCT110,0.00,VWS V14.01,2013-09-25 07:21:00,
2013-09-25 02:26:00,52.5,50.2,29.92,East,100,0.0,2.0,92,0.00,,SCT110,0.00,VWS V14.01,2013-09-25 07:26:00,
2013-09-25 02:31:00,52.6,50.6,29.92,East,101,0.0,1.0,93,0.00,,BKN110,0.00,VWS V14.01,2013-09-25 07:31:00,
2013-09-25 02:36:00,52.7,50.5,29.92,East,100,0.0,1.0,92,0.00,,SCT110,0.00,VWS V14.01,2013-09-25 07:36:00,
2013-09-25 02:41:00,52.8,50.5,29.92,ESE,103,0.0,1.0,92,0.00,,SCT110,0.00,VWS V14.01,2013-09-25 07:41:00,
2013-09-25 02:46:00,52.8,50.5,29.92,ESE,103,0.0,1.0,92,0.00,,SCT110,0.00,VWS V14.01,2013-09-25 07:46:00,
2013-09-25 02:51:00,52.6,50.3,29.92,ESE,103,0.0,1.0,92,0.00,,,0.00,VWS V14.01,2013-09-25 07:51:00,
2013-09-25 02:56:00,52.5,50.2,29.92,ESE,103,0.0,1.0,92,0.00,,BKN110,0.00,VWS V14.01,2013-09-25 07:56:00,
2013-09-25 03:02:00,52.3,50.0,29.92,ESE,103,0.0,0.0,92,0.00,,,0.00,VWS V14.01,2013-09-25 08:02:00,
2013-09-25 03:07:00,52.2,50.0,29.92,ESE,103,0.0,0.0,92,0.00,,,0.00,VWS V14.01,2013-09-25 08:07:00,
2013-09-25 03:12:00,52.2,50.0,29.92,ESE,103,0.0,1.0,92,0.00,,,0.00,VWS V14.01,2013-09-25 08:12:00,
2013-09-25 03:17:00,52.1,50.1,29.92,ESE,103,0.0,1.0,93,0.00,,BKN110,0.00,VWS V14.01,2013-09-25 08:17:00,
2013-09-25 03:22:00,52.1,50.1,29.92,ESE,103,0.0,1.0,93,0.00,,,0.00,VWS V14.01,2013-09-25 08:22:00,
2013-09-25 03:27:00,52.1,50.1,29.92,East,99,0.0,1.0,93,0.00,,,0.00,VWS V14.01,2013-09-25 08:27:00,
2013-09-25 03:32:00,52.0,49.8,29.92,East,99,1.0,1.0,92,0.00,,,0.00,VWS V14.01,2013-09-25 08:32:00,
2013-09-25 03:37:00,52.0,49.8,29.92,East,100,1.0,1.0,92,0.00,,,0.00,VWS V14.01,2013-09-25 08:37:00,
2013-09-25 03:42:00,51.8,49.8,29.92,ESE,103,1.0,1.0,93,0.00,,,0.00,VWS V14.01,2013-09-25 08:42:00,
2013-09-25 03:47:00,52.0,50.0,29.92,ESE,105,0.0,2.0,93,0.00,,,0.00,VWS V14.01,2013-09-25 08:47:00,
2013-09-25 03:52:00,52.0,50.0,29.92,ESE,104,0.0,2.0,93,0.00,,SCT110,0.00,VWS V14.01,2013-09-25 08:52:00,
2013-09-25 03:57:00,52.0,49.8,29.92,ESE,104,0.0,2.0,92,0.00,,SCT110,0.00,VWS V14.01,2013-09-25 08:57:00,
2013-09-25 04:02:00,51.8,49.5,29.92,ESE,105,0.0,1.0,92,0.00,,SCT110,0.00,VWS V14.01,2013-09-25 09:02:00,
2013-09-25 04:07:00,51.8,49.8,29.92,ESE,104,0.0,1.0,93,0.00,,SCT110,0.00,VWS V14.01,2013-09-25 09:07:00,
2013-09-25 04:12:00,51.7,49.8,29.92,ESE,105,0.0,1.0,93,0.00,,SCT110,0.00,VWS V14.01,2013-09-25 09:12:00,
2013-09-25 04:17:00,51.6,49.7,29.92,ESE,104,0.0,1.0,93,0.00,,SCT110,0.00,VWS V14.01,2013-09-25 09:17:00,
2013-09-25 04:22:00,51.4,49.5,29.92,ESE,105,0.0,1.0,93,0.00,,SCT110,0.00,VWS V14.01,2013-09-25 09:22:00,
2013-09-25 04:27:00,51.4,49.5,29.92,ESE,105,0.0,1.0,93,0.00,,SCT110,0.00,VWS V14.01,2013-09-25 09:27:00,
2013-09-25 04:32:00,51.2,49.2,29.92,ESE,104,0.0,0.0,93,0.00,,SCT100,0.00,VWS V14.01,2013-09-25 09:32:00,
2013-09-25 04:37:00,51.1,49.2,29.92,ESE,103,1.0,1.0,93,0.00,,SCT100,0.00,VWS V14.01,2013-09-25 09:37:00,
2013-09-25 04:42:00,51.0,49.0,29.92,ESE,105,0.0,2.0,93,0.00,,SCT100,0.00,VWS V14.01,2013-09-25 09:42:00,
2013-09-25 04:47:00,51.0,49.0,29.92,ESE,103,0.0,2.0,93,0.00,,SCT100,0.00,VWS V14.01,2013-09-25 09:47:00,
2013-09-25 04:52:00,50.9,49.0,29.92,ESE,103,0.0,2.0,93,0.00,,SCT100,0.00,VWS V14.01,2013-09-25 09:52:00,
2013-09-25 04:57:00,50.8,48.8,29.92,ESE,103,0.0,2.0,93,0.00,,SCT100,0.00,VWS V14.01,2013-09-25 09:57:00,
2013-09-25 05:02:00,50.7,49.0,29.92,ESE,103,0.0,0.0,94,0.00,,SCT100,0.00,VWS V14.01,2013-09-25 10:02:00,
2013-09-25 05:07:00,50.7,49.0,29.93,ESE,103,0.0,0.0,94,0.00,,SCT100,0.00,VWS V14.01,2013-09-25 10:07:00,
2013-09-25 05:12:00,50.6,48.9,29.93,ESE,103,0.0,0.0,94,0.00,,SCT100,0.00,VWS V14.01,2013-09-25 10:12:00,
2013-09-25 05:17:00,50.6,48.9,29.93,ESE,103,0.0,0.0,94,0.00,,SCT100,0.00,VWS V14.01,2013-09-25 10:17:00,
2013-09-25 05:22:00,50.5,48.8,29.93,ESE,103,0.0,0.0,94,0.00,,SCT100,0.00,VWS V14.01,2013-09-25 10:22:00,
2013-09-25 05:27:00,50.4,48.7,29.92,ESE,103,0.0,0.0,94,0.00,,SCT100,0.00,VWS V14.01,2013-09-25 10:27:00,
2013-09-25 05:32:00,50.2,48.5,29.93,ESE,103,0.0,1.0,94,0.00,,,0.00,VWS V14.01,2013-09-25 10:32:00,
2013-09-25 05:37:00,50.1,48.4,29.93,ESE,103,0.0,1.0,94,0.00,,,0.00,VWS V14.01,2013-09-25 10:37:00,
2013-09-25 05:42:00,50.1,48.4,29.93,ESE,103,0.0,1.0,94,0.00,,,0.00,VWS V14.01,2013-09-25 10:42:00,
2013-09-25 05:47:00,50.0,48.3,29.93,East,100,0.0,1.0,94,0.00,,SCT100,0.00,VWS V14.01,2013-09-25 10:47:00,
2013-09-25 05:52:00,49.8,48.2,29.93,East,100,0.0,1.0,94,0.00,,,0.00,VWS V14.01,2013-09-25 10:52:00,
2013-09-25 05:57:00,49.7,48.3,29.93,East,101,0.0,1.0,95,0.00,,,0.00,VWS V14.01,2013-09-25 10:57:00,
2013-09-25 06:02:00,49.6,48.2,29.93,East,101,0.0,1.0,95,0.00,,,0.00,VWS V14.01,2013-09-25 11:02:00,
2013-09-25 06:07:00,49.5,48.1,29.93,East,101,0.0,1.0,95,0.00,,,0.00,VWS V14.01,2013-09-25 11:07:00,
2013-09-25 06:12:00,49.6,48.2,29.93,ESE,102,0.0,1.0,95,0.00,,,0.00,VWS V14.01,2013-09-25 11:12:00,
2013-09-25 06:17:00,49.7,48.3,29.93,ESE,102,0.0,1.0,95,0.00,,,0.00,VWS V14.01,2013-09-25 11:17:00,
2013-09-25 06:22:00,49.7,48.3,29.93,ESE,102,0.0,1.0,95,0.00,,,0.00,VWS V14.01,2013-09-25 11:22:00,
2013-09-25 06:27:00,49.6,48.2,29.93,East,101,1.0,1.0,95,0.00,,,0.00,VWS V14.01,2013-09-25 11:27:00,
2013-09-25 06:32:00,49.4,48.0,29.93,ESE,102,0.0,1.0,95,0.00,,SCT110,0.00,VWS V14.01,2013-09-25 11:32:00,
2013-09-25 06:37:00,49.4,48.0,29.93,East,101,0.0,1.0,95,0.00,,SCT110,0.00,VWS V14.01,2013-09-25 11:37:00,
2013-09-25 06:42:00,49.3,47.9,29.93,East,100,0.0,1.0,95,0.00,,SCT110,0.00,VWS V14.01,2013-09-25 11:42:00,
2013-09-25 06:47:00,49.3,47.9,29.93,East,101,0.0,1.0,95,0.00,,SCT110,0.00,VWS V14.01,2013-09-25 11:47:00,
2013-09-25 06:52:00,49.3,47.9,29.93,East,100,0.0,1.0,95,0.00,,,0.00,VWS V14.01,2013-09-25 11:52:00,
2013-09-25 06:57:00,49.1,47.7,29.93,East,101,0.0,1.0,95,0.00,,,0.00,VWS V14.01,2013-09-25 11:57:00,
2013-09-25 07:02:00,49.1,47.7,29.93,East,98,1.0,1.0,95,0.00,,,0.00,VWS V14.01,2013-09-25 12:02:00,
2013-09-25 07:07:00,49.0,47.9,29.93,East,96,0.0,1.0,96,0.00,,,0.00,VWS V14.01,2013-09-25 12:07:00,
2013-09-25 07:12:00,48.9,47.8,29.93,East,96,0.0,1.0,96,0.00,,,0.00,VWS V14.01,2013-09-25 12:12:00,
2013-09-25 07:17:00,49.1,48.0,29.94,East,96,0.0,1.0,96,0.00,,,0.00,VWS V14.01,2013-09-25 12:17:00,
2013-09-25 07:22:00,49.0,47.9,29.94,East,96,0.0,1.0,96,0.00,,,0.00,VWS V14.01,2013-09-25 12:22:00,
2013-09-25 07:27:00,48.8,47.4,29.94,East,101,1.0,1.0,95,0.00,,,0.00,VWS V14.01,2013-09-25 12:27:00,
2013-09-25 07:32:00,48.8,47.7,29.94,East,101,0.0,1.0,96,0.00,,,0.00,VWS V14.01,2013-09-25 12:32:00,
2013-09-25 07:37:00,48.9,47.8,29.94,East,98,0.0,1.0,96,0.00,,,0.00,VWS V14.01,2013-09-25 12:37:00,
2013-09-25 07:42:00,49.3,48.2,29.94,East,98,0.0,1.0,96,0.00,,,0.00,VWS V14.01,2013-09-25 12:42:00,
2013-09-25 07:47:00,49.7,48.6,29.94,East,91,1.0,1.0,96,0.00,,,0.00,VWS V14.01,2013-09-25 12:47:00,
2013-09-25 07:52:00,50.2,49.1,29.94,ESE,105,0.0,1.0,96,0.00,,,0.00,VWS V14.01,2013-09-25 12:52:00,
2013-09-25 07:57:00,50.5,49.1,29.94,East,101,1.0,2.0,95,0.00,,,0.00,VWS V14.01,2013-09-25 12:57:00,
2013-09-25 08:02:00,50.5,48.8,29.94,East,86,1.0,2.0,94,0.00,,,0.00,VWS V14.01,2013-09-25 13:02:00,
2013-09-25 08:07:00,50.6,48.9,29.94,East,98,2.0,2.0,94,0.00,,,0.00,VWS V14.01,2013-09-25 13:07:00,
2013-09-25 08:12:00,50.8,49.1,29.93,ESE,102,2.0,3.0,94,0.00,,,0.00,VWS V14.01,2013-09-25 13:12:00,
2013-09-25 08:17:00,51.1,49.4,29.94,ESE,103,1.0,3.0,94,0.00,,,0.00,VWS V14.01,2013-09-25 13:17:00,
2013-09-25 08:22:00,51.4,49.7,29.94,East,99,1.0,3.0,94,0.00,,,0.00,VWS V14.01,2013-09-25 13:22:00,
2013-09-25 08:27:00,51.6,49.9,29.94,ESE,102,1.0,3.0,94,0.00,,,0.00,VWS V14.01,2013-09-25 13:27:00,
2013-09-25 08:32:00,51.7,49.8,29.94,ESE,107,1.0,3.0,93,0.00,,SCT090,0.00,VWS V14.01,2013-09-25 13:32:00,
2013-09-25 08:37:00,51.8,49.8,29.93,ESE,110,2.0,3.0,93,0.00,,SCT090,0.00,VWS V14.01,2013-09-25 13:37:00,
2013-09-25 08:42:00,52.2,50.5,29.93,ESE,103,2.0,3.0,94,0.00,,SCT090,0.00,VWS V14.01,2013-09-25 13:42:00,
2013-09-25 08:47:00,52.4,50.4,29.94,ESE,105,1.0,3.0,93,0.00,,CLR,0.00,VWS V14.01,2013-09-25 13:47:00,
2013-09-25 08:52:00,53.1,51.4,29.94,ESE,110,0.0,3.0,94,0.00,,CLR,0.00,VWS V14.01,2013-09-25 13:52:00,
2013-09-25 08:57:00,53.7,51.7,29.94,ESE,105,1.0,3.0,93,0.00,,CLR,0.00,VWS V14.01,2013-09-25 13:57:00,
2013-09-25 09:02:00,54.2,52.2,29.94,ESE,105,0.0,1.0,93,0.00,,CLR,0.00,VWS V14.01,2013-09-25 14:02:00,
2013-09-25 09:07:00,54.8,52.5,29.94,ESE,103,0.0,1.0,92,0.00,,CLR,0.00,VWS V14.01,2013-09-25 14:07:00,
2013-09-25 09:12:00,55.4,52.8,29.94,SSE,150,0.0,1.0,91,0.00,,CLR,0.00,VWS V14.01,2013-09-25 14:12:00,
2013-09-25 09:17:00,55.9,53.3,29.94,SSE,157,2.0,2.0,91,0.00,,CLR,0.00,VWS V14.01,2013-09-25 14:17:00,
2013-09-25 09:22:00,56.7,53.8,29.94,SSE,165,0.0,2.0,90,0.00,,CLR,0.00,VWS V14.01,2013-09-25 14:22:00,
2013-09-25 09:27:00,57.5,54.3,29.94,SE,124,0.0,2.0,89,0.00,,CLR,0.00,VWS V14.01,2013-09-25 14:27:00,
2013-09-25 09:32:00,58.0,54.5,29.94,SE,133,1.0,2.0,88,0.00,,CLR,0.00,VWS V14.01,2013-09-25 14:32:00,
2013-09-25 09:37:00,58.7,54.5,29.94,SSE,167,1.0,4.0,86,0.00,,CLR,0.00,VWS V14.01,2013-09-25 14:37:00,
2013-09-25 09:42:00,59.2,55.0,29.94,SE,131,0.0,4.0,86,0.00,,CLR,0.00,VWS V14.01,2013-09-25 14:42:00,
2013-09-25 09:47:00,59.9,55.1,29.94,SE,142,0.0,4.0,84,0.00,,CLR,0.00,VWS V14.01,2013-09-25 14:47:00,
2013-09-25 09:52:00,60.6,55.8,29.94,SSE,166,0.0,4.0,84,0.00,,CLR,0.00,VWS V14.01,2013-09-25 14:52:00,
2013-09-25 09:57:00,61.4,56.2,29.94,SSE,167,1.0,4.0,83,0.00,,CLR,0.00,VWS V14.01,2013-09-25 14:57:00,
2013-09-25 10:02:00,62.0,55.8,29.94,SSW,200,3.0,3.0,80,0.00,,CLR,0.00,VWS V14.01,2013-09-25 15:02:00,
2013-09-25 10:07:00,62.5,55.9,29.94,SSW,193,1.0,5.0,79,0.00,,CLR,0.00,VWS V14.01,2013-09-25 15:07:00,
2013-09-25 10:12:00,63.0,56.4,29.94,SSW,199,2.0,5.0,79,0.00,,CLR,0.00,VWS V14.01,2013-09-25 15:12:00,
2013-09-25 10:17:00,63.3,56.0,29.94,SSW,198,1.0,5.0,77,0.00,,CLR,0.00,VWS V14.01,2013-09-25 15:17:00,
2013-09-25 10:22:00,63.7,56.4,29.94,South,171,0.0,5.0,77,0.00,,CLR,0.00,VWS V14.01,2013-09-25 15:22:00,
2013-09-25 10:27:00,64.7,57.3,29.93,South,176,0.0,5.0,77,0.00,,CLR,0.00,VWS V14.01,2013-09-25 15:27:00,
2013-09-25 10:32:00,65.0,56.5,29.93,ESE,120,1.0,4.0,74,0.00,,CLR,0.00,VWS V14.01,2013-09-25 15:32:00,
2013-09-25 10:37:00,65.1,56.2,29.93,SE,136,2.0,4.0,73,0.00,,CLR,0.00,VWS V14.01,2013-09-25 15:37:00,
2013-09-25 10:42:00,65.2,56.3,29.94,SE,132,1.0,4.0,73,0.00,,CLR,0.00,VWS V14.01,2013-09-25 15:42:00,
2013-09-25 10:47:00,65.6,56.3,29.94,SE,145,0.0,4.0,72,0.00,,CLR,0.00,VWS V14.01,2013-09-25 15:47:00,
2013-09-25 10:52:00,66.2,56.9,29.94,ESE,120,1.0,4.0,72,0.00,,CLR,0.00,VWS V14.01,2013-09-25 15:52:00,
2013-09-25 10:57:00,66.7,56.6,29.94,South,183,2.0,4.0,70,0.00,,CLR,0.00,VWS V14.01,2013-09-25 15:57:00,
2013-09-25 11:02:00,67.1,56.6,29.94,SSE,158,0.0,5.0,69,0.00,,CLR,0.00,VWS V14.01,2013-09-25 16:02:00,
2013-09-25 11:07:00,67.4,57.3,29.94,East,86,0.0,5.0,70,0.00,,CLR,0.00,VWS V14.01,2013-09-25 16:07:00,
2013-09-25 11:12:00,67.9,57.0,29.93,SSE,166,1.0,5.0,68,0.00,,CLR,0.00,VWS V14.01,2013-09-25 16:12:00,
2013-09-25 11:17:00,68.0,57.1,29.94,South,173,1.0,5.0,68,0.00,,CLR,0.00,VWS V14.01,2013-09-25 16:17:00,
2013-09-25 11:22:00,68.0,56.7,29.94,SSW,209,2.0,5.0,67,0.00,,CLR,0.00,VWS V14.01,2013-09-25 16:22:00,
2013-09-25 11:27:00,68.4,57.4,29.94,SE,133,2.0,5.0,68,0.00,,CLR,0.00,VWS V14.01,2013-09-25 16:27:00,
2013-09-25 11:32:00,68.9,56.7,29.93,ESE,123,3.0,7.0,65,0.00,,CLR,0.00,VWS V14.01,2013-09-25 16:32:00,
2013-09-25 11:37:00,69.3,57.0,29.93,ESE,113,2.0,7.0,65,0.00,,CLR,0.00,VWS V14.01,2013-09-25 16:37:00,
2013-09-25 11:42:00,69.5,56.8,29.93,ESE,114,1.0,7.0,64,0.00,,CLR,0.00,VWS V14.01,2013-09-25 16:42:00,
2013-09-25 11:46:00,69.4,56.3,29.93,ESE,107,2.0,7.0,63,0.00,,CLR,0.00,VWS V14.01,2013-09-25 16:46:00,
2013-09-25 11:51:00,69.2,56.5,29.93,ENE,73,1.0,7.0,64,0.00,,CLR,0.00,VWS V14.01,2013-09-25 16:51:00,
2013-09-25 11:56:00,69.3,55.7,29.93,ESE,120,3.0,7.0,62,0.00,,CLR,0.00,VWS V14.01,2013-09-25 16:56:00,
2013-09-25 12:01:00,69.8,56.7,29.93,ESE,123,2.0,3.0,63,0.00,,CLR,0.00,VWS V14.01,2013-09-25 17:01:00,
2013-09-25 12:06:00,70.0,56.8,29.93,SE,134,3.0,5.0,63,0.00,,CLR,0.00,VWS V14.01,2013-09-25 17:06:00,
2013-09-25 12:11:00,69.9,55.8,29.93,SSW,193,5.0,7.0,61,0.00,,CLR,0.00,VWS V14.01,2013-09-25 17:11:00,
2013-09-25 12:16:00,69.8,55.3,29.92,ESE,111,3.0,8.0,60,0.00,,CLR,0.00,VWS V14.01,2013-09-25 17:16:00,
2013-09-25 12:21:00,69.9,55.4,29.92,SE,131,2.0,8.0,60,0.00,,CLR,0.00,VWS V14.01,2013-09-25 17:21:00,
2013-09-25 12:26:00,69.8,54.8,29.92,SE,139,3.0,8.0,59,0.00,,CLR,0.00,VWS V14.01,2013-09-25 17:26:00,
2013-09-25 12:31:00,69.8,54.8,29.92,ESE,105,2.0,8.0,59,0.00,,CLR,0.00,VWS V14.01,2013-09-25 17:31:00,
2013-09-25 12:36:00,70.4,54.9,29.92,SSW,195,1.0,8.0,58,0.00,,CLR,0.00,VWS V14.01,2013-09-25 17:36:00,
2013-09-25 12:41:00,70.4,55.4,29.92,ESE,115,2.0,8.0,59,0.00,,CLR,0.00,VWS V14.01,2013-09-25 17:41:00,
2013-09-25 12:46:00,69.9,54.9,29.92,SE,126,2.0,8.0,59,0.00,,CLR,0.00,VWS V14.01,2013-09-25 17:46:00,
2013-09-25 12:51:00,70.1,54.2,29.91,SSE,149,2.0,9.0,57,0.00,,CLR,0.00,VWS V14.01,2013-09-25 17:51:00,
2013-09-25 12:56:00,70.0,55.0,29.91,SE,142,3.0,9.0,59,0.00,,CLR,0.00,VWS V14.01,2013-09-25 17:56:00,
2013-09-25 13:01:00,70.1,55.6,29.91,SSW,213,8.0,8.0,60,0.00,,CLR,0.00,VWS V14.01,2013-09-25 18:01:00,
2013-09-25 13:06:00,70.2,55.7,29.90,SE,135,2.0,8.0,60,0.00,,CLR,0.00,VWS V14.01,2013-09-25 18:06:00,
2013-09-25 13:11:00,70.3,54.8,29.90,ESE,110,4.0,8.0,58,0.00,,CLR,0.00,VWS V14.01,2013-09-25 18:11:00,
2013-09-25 13:16:00,70.2,55.2,29.89,SSE,162,2.0,8.0,59,0.00,,CLR,0.00,VWS V14.01,2013-09-25 18:16:00,
2013-09-25 13:21:00,70.6,56.1,29.89,ESE,117,2.0,8.0,60,0.00,,CLR,0.00,VWS V14.01,2013-09-25 18:21:00,
2013-09-25 13:26:00,70.8,55.3,29.89,SE,125,1.0,8.0,58,0.00,,CLR,0.00,VWS V14.01,2013-09-25 18:26:00,
2013-09-25 13:31:00,71.1,55.6,29.89,ESE,117,4.0,9.0,58,0.00,,CLR,0.00,VWS V14.01,2013-09-25 18:31:00,
2013-09-25 13:36:00,71.2,55.7,29.89,ESE,117,4.0,9.0,58,0.00,,CLR,0.00,VWS V14.01,2013-09-25 18:36:00,
2013-09-25 13:41:00,70.9,55.9,29.89,South,177,3.0,9.0,59,0.00,,CLR,0.00,VWS V14.01,2013-09-25 18:41:00,
2013-09-25 13:46:00,71.5,55.5,29.89,South,170,5.0,9.0,57,0.00,,CLR,0.00,VWS V14.01,2013-09-25 18:46:00,
2013-09-25 13:51:00,71.6,55.1,29.88,SSW,204,3.0,9.0,56,0.00,,CLR,0.00,VWS V14.01,2013-09-25 18:51:00,
2013-09-25 13:56:00,71.8,55.8,29.88,South,188,2.0,9.0,57,0.00,,CLR,0.00,VWS V14.01,2013-09-25 18:56:00,
2013-09-25 14:01:00,71.9,55.4,29.88,ESE,115,2.0,3.0,56,0.00,,CLR,0.00,VWS V14.01,2013-09-25 19:01:00,
2013-09-25 14:06:00,72.1,56.0,29.88,ESE,110,1.0,3.0,57,0.00,,CLR,0.00,VWS V14.01,2013-09-25 19:06:00,
2013-09-25 14:11:00,72.7,56.1,29.88,WSW,237,0.0,4.0,56,0.00,,CLR,0.00,VWS V14.01,2013-09-25 19:11:00,
2013-09-25 14:16:00,73.0,56.4,29.88,South,169,2.0,4.0,56,0.00,,CLR,0.00,VWS V14.01,2013-09-25 19:16:00,
2013-09-25 14:21:00,73.2,55.6,29.88,SE,142,3.0,6.0,54,0.00,,CLR,0.00,VWS V14.01,2013-09-25 19:21:00,
2013-09-25 14:26:00,73.3,55.7,29.88,ESE,117,3.0,6.0,54,0.00,,CLR,0.00,VWS V14.01,2013-09-25 19:26:00,
2013-09-25 14:31:00,73.2,56.1,29.88,SSE,158,4.0,5.0,55,0.00,,CLR,0.00,VWS V14.01,2013-09-25 19:31:00,
2013-09-25 14:36:00,73.2,54.5,29.87,SE,131,1.0,5.0,52,0.00,,CLR,0.00,VWS V14.01,2013-09-25 19:36:00,
2013-09-25 14:41:00,73.2,55.1,29.87,South,173,2.0,8.0,53,0.00,,CLR,0.00,VWS V14.01,2013-09-25 19:41:00,
2013-09-25 14:47:00,73.1,54.5,29.87,ESE,105,2.0,8.0,52,0.00,,CLR,0.00,VWS V14.01,2013-09-25 19:47:00,
2013-09-25 14:52:00,73.2,55.1,29.86,South,174,2.0,8.0,53,0.00,,CLR,0.00,VWS V14.01,2013-09-25 19:52:00,
2013-09-25 14:57:00,73.3,54.6,29.87,South,183,6.0,8.0,52,0.00,,CLR,0.00,VWS V14.01,2013-09-25 19:57:00,
2013-09-25 15:02:00,73.1,55.0,29.87,SSE,149,1.0,4.0,53,0.00,,CLR,0.00,VWS V14.01,2013-09-25 20:02:00,
2013-09-25 15:07:00,73.1,55.5,29.86,SE,136,3.0,8.0,54,0.00,,CLR,0.00,VWS V14.01,2013-09-25 20:07:00,
2013-09-25 15:12:00,73.3,55.7,29.87,SE,129,2.0,8.0,54,0.00,,CLR,0.00,VWS V14.01,2013-09-25 20:12:00,
2013-09-25 15:17:00,73.5,55.9,29.86,SE,142,1.0,8.0,54,0.00,,CLR,0.00,VWS V14.01,2013-09-25 20:17:00,
2013-09-25 15:22:00,73.1,54.5,29.86,ESE,121,3.0,9.0,52,0.00,,CLR,0.00,VWS V14.01,2013-09-25 20:22:00,
2013-09-25 15:27:00,72.9,55.3,29.86,South,183,6.0,9.0,54,0.00,,CLR,0.00,VWS V14.01,2013-09-25 20:27:00,
2013-09-25 15:32:00,72.8,54.7,29.86,SE,131,2.0,7.0,53,0.00,,CLR,0.00,VWS V14.01,2013-09-25 20:32:00,
2013-09-25 15:37:00,72.7,55.1,29.86,SSE,158,1.0,7.0,54,0.00,,CLR,0.00,VWS V14.01,2013-09-25 20:37:00,
2013-09-25 15:42:00,72.9,55.3,29.86,South,179,2.0,7.0,54,0.00,,CLR,0.00,VWS V14.01,2013-09-25 20:42:00,
2013-09-25 15:47:00,73.3,55.7,29.86,ESE,123,2.0,7.0,54,0.00,,CLR,0.00,VWS V14.01,2013-09-25 20:47:00,
2013-09-25 15:52:00,73.1,55.0,29.86,SE,139,3.0,7.0,53,0.00,,CLR,0.00,VWS V14.01,2013-09-25 20:52:00,
2013-09-25 15:56:00,73.0,55.4,29.86,SSW,205,3.0,7.0,54,0.00,,CLR,0.00,VWS V14.01,2013-09-25 20:56:00,
2013-09-25 16:02:00,73.1,55.5,29.86,SE,133,1.0,4.0,54,0.00,,CLR,0.00,VWS V14.01,2013-09-25 21:02:00,
2013-09-25 16:07:00,73.0,53.8,29.85,SE,142,3.0,5.0,51,0.00,,CLR,0.00,VWS V14.01,2013-09-25 21:07:00,
2013-09-25 16:12:00,72.8,54.2,29.85,SE,129,2.0,6.0,52,0.00,,CLR,0.00,VWS V14.01,2013-09-25 21:12:00,
2013-09-25 16:16:00,72.8,55.7,29.85,SE,142,2.0,8.0,55,0.00,,CLR,0.00,VWS V14.01,2013-09-25 21:16:00,
2013-09-25 16:21:00,72.7,54.6,29.85,SE,129,3.0,8.0,53,0.00,,CLR,0.00,VWS V14.01,2013-09-25 21:21:00,
2013-09-25 16:26:00,72.6,54.5,29.85,ESE,117,3.0,8.0,53,0.00,,CLR,0.00,VWS V14.01,2013-09-25 21:26:00,
2013-09-25 16:31:00,72.5,54.4,29.85,SE,134,2.0,6.0,53,0.00,,CLR,0.00,VWS V14.01,2013-09-25 21:31:00,
2013-09-25 16:36:00,72.6,54.5,29.85,South,173,3.0,6.0,53,0.00,,CLR,0.00,VWS V14.01,2013-09-25 21:36:00,
2013-09-25 16:41:00,72.8,54.2,29.85,ESE,109,3.0,6.0,52,0.00,,CLR,0.00,VWS V14.01,2013-09-25 21:41:00,
2013-09-25 16:46:00,72.6,53.5,29.85,ESE,119,1.0,6.0,51,0.00,,CLR,0.00,VWS V14.01,2013-09-25 21:46:00,
2013-09-25 16:51:00,72.7,53.5,29.85,ESE,111,4.0,6.0,51,0.00,,CLR,0.00,VWS V14.01,2013-09-25 21:51:00,
2013-09-25 16:57:00,72.7,53.5,29.85,SE,134,3.0,6.0,51,0.00,,CLR,0.00,VWS V14.01,2013-09-25 21:57:00,
2013-09-25 17:02:00,72.5,53.4,29.85,ESE,109,4.0,6.0,51,0.00,,CLR,0.00,VWS V14.01,2013-09-25 22:02:00,
2013-09-25 17:07:00,72.4,53.3,29.84,SE,130,1.0,6.0,51,0.00,,CLR,0.00,VWS V14.01,2013-09-25 22:07:00,
2013-09-25 17:12:00,72.4,53.3,29.85,SSE,166,3.0,6.0,51,0.00,,CLR,0.00,VWS V14.01,2013-09-25 22:12:00,
2013-09-25 17:17:00,72.4,53.3,29.85,ENE,75,3.0,8.0,51,0.00,,CLR,0.00,VWS V14.01,2013-09-25 22:17:00,
2013-09-25 17:22:00,72.2,53.6,29.85,SE,139,2.0,8.0,52,0.00,,CLR,0.00,VWS V14.01,2013-09-25 22:22:00,
2013-09-25 17:27:00,72.2,54.1,29.85,SSE,153,1.0,8.0,53,0.00,,CLR,0.00,VWS V14.01,2013-09-25 22:27:00,
2013-09-25 17:32:00,72.2,53.6,29.85,ESE,114,4.0,5.0,52,0.00,,CLR,0.00,VWS V14.01,2013-09-25 22:32:00,
2013-09-25 17:37:00,71.9,53.9,29.85,ESE,112,3.0,6.0,53,0.00,,CLR,0.00,VWS V14.01,2013-09-25 22:37:00,
2013-09-25 17:42:00,71.7,53.7,29.85,ESE,120,2.0,6.0,53,0.00,,CLR,0.00,VWS V14.01,2013-09-25 22:42:00,
2013-09-25 17:47:00,71.6,53.6,29.85,ESE,115,3.0,6.0,53,0.00,,CLR,0.00,VWS V14.01,2013-09-25 22:47:00,
2013-09-25 17:52:00,71.6,54.1,29.85,SSE,148,2.0,6.0,54,0.00,,CLR,0.00,VWS V14.01,2013-09-25 22:52:00,
2013-09-25 17:57:00,71.5,54.0,29.84,ESE,121,3.0,6.0,54,0.00,,CLR,0.00,VWS V14.01,2013-09-25 22:57:00,
2013-09-25 18:02:00,71.4,54.4,29.84,ESE,120,2.0,5.0,55,0.00,,CLR,0.00,VWS V14.01,2013-09-25 23:02:00,
2013-09-25 18:07:00,71.2,54.2,29.84,ESE,110,3.0,5.0,55,0.00,,CLR,0.00,VWS V14.01,2013-09-25 23:07:00,
2013-09-25 18:12:00,71.0,54.5,29.84,ESE,105,2.0,5.0,56,0.00,,CLR,0.00,VWS V14.01,2013-09-25 23:12:00,
2013-09-25 18:17:00,70.8,54.8,29.84,ESE,123,2.0,5.0,57,0.00,,CLR,0.00,VWS V14.01,2013-09-25 23:17:00,
2013-09-25 18:22:00,70.7,54.7,29.84,ESE,114,2.0,5.0,57,0.00,,CLR,0.00,VWS V14.01,2013-09-25 23:22:00,
2013-09-25 18:27:00,70.3,54.8,29.84,ESE,113,2.0,5.0,58,0.00,,CLR,0.00,VWS V14.01,2013-09-25 23:27:00,
2013-09-25 18:32:00,70.0,55.0,29.84,ESE,115,2.0,3.0,59,0.00,,CLR,0.00,VWS V14.01,2013-09-25 23:32:00,
2013-09-25 18:37:00,69.6,55.1,29.85,ESE,109,1.0,4.0,60,0.00,,CLR,0.00,VWS V14.01,2013-09-25 23:37:00,
2013-09-25 18:42:00,69.1,55.1,29.85,ESE,111,1.0,4.0,61,0.00,,CLR,0.00,VWS V14.01,2013-09-25 23:42:00,
2013-09-25 18:47:00,68.5,55.0,29.84,ESE,105,2.0,4.0,62,0.00,,CLR,0.00,VWS V14.01,2013-09-25 23:47:00,
2013-09-25 18:52:00,67.8,54.8,29.84,ESE,103,2.0,4.0,63,0.00,,CLR,0.00,VWS V14.01,2013-09-25 23:52:00,
2013-09-25 18:57:00,67.2,54.6,29.84,East,101,3.0,3.0,64,0.00,,CLR,0.00,VWS V14.01,2013-09-25 23:57:00,
2013-09-25 19:02:00,66.6,54.9,29.84,ESE,108,3.0,4.0,66,0.00,,CLR,0.00,VWS V14.01,2013-09-26 00:02:00,
2013-09-25 19:07:00,66.1,54.4,29.84,East,93,4.0,5.0,66,0.00,,CLR,0.00,VWS V14.01,2013-09-26 00:07:00,
2013-09-25 19:12:00,65.7,54.5,29.84,ESE,103,3.0,5.0,67,0.00,,CLR,0.00,VWS V14.01,2013-09-26 00:12:00,
2013-09-25 19:17:00,65.2,54.4,29.84,ESE,102,3.0,5.0,68,0.00,,CLR,0.00,VWS V14.01,2013-09-26 00:17:00,
2013-09-25 19:22:00,64.8,54.4,29.84,East,99,3.0,5.0,69,0.00,,CLR,0.00,VWS V14.01,2013-09-26 00:22:00,
2013-09-25 19:27:00,64.4,54.0,29.84,ESE,123,2.0,3.0,69,0.00,,CLR,0.00,VWS V14.01,2013-09-26 00:27:00,
2013-09-25 19:32:00,64.0,54.0,29.84,ESE,120,2.0,4.0,70,0.00,,CLR,0.00,VWS V14.01,2013-09-26 00:32:00,
2013-09-25 19:37:00,63.7,53.7,29.85,ESE,108,3.0,4.0,70,0.00,,CLR,0.00,VWS V14.01,2013-09-26 00:37:00,
2013-09-25 19:42:00,63.4,53.8,29.85,East,100,2.0,4.0,71,0.00,,CLR,0.00,VWS V14.01,2013-09-26 00:42:00,
2013-09-25 19:47:00,63.0,53.8,29.85,East,101,4.0,4.0,72,0.00,,CLR,0.00,VWS V14.01,2013-09-26 00:47:00,
2013-09-25 19:52:00,62.7,53.5,29.85,East,101,2.0,4.0,72,0.00,,CLR,0.00,VWS V14.01,2013-09-26 00:52:00,
2013-09-25 19:57:00,62.5,53.4,29.85,East,100,3.0,3.0,72,0.00,,CLR,0.00,VWS V14.01,2013-09-26 00:57:00,
2013-09-25 20:02:00,62.2,53.5,29.85,ESE,103,2.0,3.0,73,0.00,,CLR,0.00,VWS V14.01,2013-09-26 01:02:00,
2013-09-25 20:08:00,62.0,53.3,29.85,East,101,2.0,4.0,73,0.00,,CLR,0.00,VWS V14.01,2013-09-26 01:08:00,
2013-09-25 20:13:00,61.9,53.2,29.85,ESE,110,1.0,4.0,73,0.00,,CLR,0.00,VWS V14.01,2013-09-26 01:13:00,
2013-09-25 20:18:00,61.8,53.1,29.85,ESE,114,2.0,4.0,73,0.00,,CLR,0.00,VWS V14.01,2013-09-26 01:18:00,
2013-09-25 20:23:00,61.7,52.6,29.85,ESE,107,0.0,4.0,72,0.00,,CLR,0.00,VWS V14.01,2013-09-26 01:23:00,
2013-09-25 20:28:00,61.5,52.4,29.85,East,99,2.0,4.0,72,0.00,,CLR,0.00,VWS V14.01,2013-09-26 01:28:00,
2013-09-25 20:33:00,61.3,52.2,29.85,ESE,107,1.0,4.0,72,0.00,,CLR,0.00,VWS V14.01,2013-09-26 01:33:00,
2013-09-25 20:38:00,61.2,52.5,29.85,ESE,113,1.0,4.0,73,0.00,,CLR,0.00,VWS V14.01,2013-09-26 01:38:00,
2013-09-25 20:43:00,61.0,52.3,29.86,ESE,121,0.0,4.0,73,0.00,,CLR,0.00,VWS V14.01,2013-09-26 01:43:00,
2013-09-25 20:48:00,60.9,52.2,29.86,ESE,117,1.0,4.0,73,0.00,,CLR,0.00,VWS V14.01,2013-09-26 01:48:00,
2013-09-25 20:53:00,60.9,51.8,29.86,ESE,113,0.0,4.0,72,0.00,,SCT120,0.00,VWS V14.01,2013-09-26 01:53:00,
2013-09-25 20:58:00,60.6,51.5,29.86,ESE,115,0.0,1.0,72,0.00,,SCT120,0.00,VWS V14.01,2013-09-26 01:58:00,
2013-09-25 21:03:00,60.5,51.4,29.86,ESE,107,1.0,2.0,72,0.00,,SCT120,0.00,VWS V14.01,2013-09-26 02:03:00,
2013-09-25 21:08:00,60.4,51.3,29.86,ESE,115,1.0,2.0,72,0.00,,SCT120,0.00,VWS V14.01,2013-09-26 02:08:00,
2013-09-25 21:13:00,60.3,51.2,29.86,ESE,123,0.0,2.0,72,0.00,,SCT120,0.00,VWS V14.01,2013-09-26 02:13:00,
2013-09-25 21:18:00,60.2,51.2,29.86,ESE,111,0.0,2.0,72,0.00,,SCT120,0.00,VWS V14.01,2013-09-26 02:18:00,
2013-09-25 21:23:00,60.1,51.1,29.86,ESE,120,0.0,2.0,72,0.00,,SCT120,0.00,VWS V14.01,2013-09-26 02:23:00,
2013-09-25 21:28:00,59.9,50.9,29.87,ESE,120,0.0,0.0,72,0.00,,SCT120,0.00,VWS V14.01,2013-09-26 02:28:00,
2013-09-25 21:33:00,59.7,51.0,29.87,ESE,120,0.0,1.0,73,0.00,,SCT120,0.00,VWS V14.01,2013-09-26 02:33:00,
2013-09-25 21:38:00,59.5,50.8,29.87,ESE,120,0.0,1.0,73,0.00,,SCT120,0.00,VWS V14.01,2013-09-26 02:38:00,
2013-09-25 21:43:00,59.3,50.7,29.87,ESE,107,1.0,1.0,73,0.00,,SCT120,0.00,VWS V14.01,2013-09-26 02:43:00,
2013-09-25 21:48:00,58.9,50.6,29.87,ESE,114,1.0,1.0,74,0.00,,SCT120,0.00,VWS V14.01,2013-09-26 02:48:00,
2013-09-25 21:53:00,58.7,50.5,29.87,ESE,117,1.0,1.0,74,0.00,,SCT120,0.00,VWS V14.01,2013-09-26 02:53:00,
2013-09-25 21:58:00,58.4,50.5,29.87,ESE,110,0.0,1.0,75,0.00,,SCT120,0.00,VWS V14.01,2013-09-26 02:58:00,
2013-09-25 22:03:00,58.3,50.4,29.87,ESE,111,0.0,1.0,75,0.00,,SCT120,0.00,VWS V14.01,2013-09-26 03:03:00,
2013-09-25 22:08:00,58.1,50.6,29.87,ESE,110,0.0,1.0,76,0.00,,SCT120,0.00,VWS V14.01,2013-09-26 03:08:00,
2013-09-25 22:13:00,57.9,50.4,29.87,ESE,110,0.0,1.0,76,0.00,,SCT120,0.00,VWS V14.01,2013-09-26 03:13:00,
2013-09-25 22:19:00,57.8,50.3,29.87,ESE,113,0.0,2.0,76,0.00,,SCT120,0.00,VWS V14.01,2013-09-26 03:19:00,
2013-09-25 22:24:00,57.7,50.5,29.87,ESE,103,0.0,2.0,77,0.00,,SCT120,0.00,VWS V14.01,2013-09-26 03:24:00,
2013-09-25 22:29:00,57.6,50.5,29.87,ESE,120,0.0,1.0,77,0.00,,SCT120,0.00,VWS V14.01,2013-09-26 03:29:00,
2013-09-25 22:34:00,57.6,50.5,29.88,ESE,109,0.0,1.0,77,0.00,,BKN120,0.00,VWS V14.01,2013-09-26 03:34:00,
2013-09-25 22:39:00,57.6,50.5,29.88,ESE,107,0.0,1.0,77,0.00,,BKN120,0.00,VWS V14.01,2013-09-26 03:39:00,
2013-09-25 22:44:00,57.5,50.4,29.88,ESE,110,1.0,1.0,77,0.00,,BKN120,0.00,VWS V14.01,2013-09-26 03:44:00,
2013-09-25 22:49:00,57.4,50.3,29.89,SE,128,0.0,2.0,77,0.00,,BKN120,0.00,VWS V14.01,2013-09-26 03:49:00,
2013-09-25 22:54:00,57.4,50.6,29.89,ESE,113,0.0,2.0,78,0.00,,BKN120,0.00,VWS V14.01,2013-09-26 03:54:00,
2013-09-25 22:59:00,57.3,50.5,29.89,ESE,110,1.0,2.0,78,0.00,,BKN120,0.00,VWS V14.01,2013-09-26 03:59:00,
2013-09-25 23:01:00,57.3,50.5,29.89,ESE,109,1.0,2.0,78,0.00,,BKN120,0.00,VWS V14.01,2013-09-26 04:01:00,
2013-09-25 23:06:00,57.0,50.2,29.89,ESE,109,1.0,2.0,78,0.00,,BKN120,0.00,VWS V14.01,2013-09-26 04:06:00,
2013-09-25 23:11:00,57.0,50.6,29.89,ESE,107,0.0,2.0,79,0.00,,BKN120,0.00,VWS V14.01,2013-09-26 04:11:00,
2013-09-25 23:16:00,56.8,50.4,29.89,ESE,104,1.0,2.0,79,0.00,,BKN120,0.00,VWS V14.01,2013-09-26 04:16:00,
2013-09-25 23:21:00,56.6,50.2,29.89,ESE,105,0.0,2.0,79,0.00,,BKN120,0.00,VWS V14.01,2013-09-26 04:21:00,
2013-09-25 23:26:00,56.4,50.3,29.89,ESE,107,0.0,2.0,80,0.00,,BKN120,0.00,VWS V14.01,2013-09-26 04:26:00,
2013-09-25 23:31:00,56.2,50.1,29.89,ESE,107,0.0,1.0,80,0.00,,BKN120,0.00,VWS V14.01,2013-09-26 04:31:00,
2013-09-25 23:36:00,56.0,50.3,29.89,ESE,107,0.0,1.0,81,0.00,,BKN120,0.00,VWS V14.01,2013-09-26 04:36:00,
2013-09-25 23:41:00,55.8,50.1,29.90,ESE,107,0.0,1.0,81,0.00,,BKN120,0.00,VWS V14.01,2013-09-26 04:41:00,
2013-09-25 23:46:00,55.7,50.3,29.89,East,100,1.0,2.0,82,0.00,,BKN120,0.00,VWS V14.01,2013-09-26 04:46:00,
2013-09-25 23:51:00,55.7,50.3,29.89,East,99,2.0,2.0,82,0.00,,BKN120,0.00,VWS V14.01,2013-09-26 04:51:00,
2013-09-25 23:56:00,55.6,50.2,29.90,East,93,2.0,3.0,82,0.00,,BKN120,0.00,VWS V14.01,2013-09-26 04:56:00,